createdAt,value
2019-02-25T00:44:40.127Z,8.83
2019-02-25T00:47:11.714Z,8.40
2019-02-25T00:49:42.299Z,8.17
2019-02-25T00:52:13.005Z,9.37
2019-02-25T00:54:43.640Z,9.90
2019-02-25T00:57:14.207Z,9.77
2019-02-25T00:59:44.713Z,9.10
2019-02-25T01:02:17.248Z,8.90
2019-02-25T01:04:47.978Z,8.47
2019-02-25T01:07:18.481Z,8.00
2019-02-25T01:09:48.907Z,9.13
2019-02-25T01:12:19.537Z,8.63
2019-02-25T01:14:50.076Z,9.93
2019-02-25T01:17:22.242Z,9.90
2019-02-25T01:19:52.726Z,10.40
2019-02-25T01:22:24.203Z,9.00
2019-02-25T01:24:54.714Z,9.47
2019-02-25T01:27:30.704Z,9.50
2019-02-25T01:33:10.875Z,10.77
2019-02-25T01:35:42.018Z,10.27
2019-02-25T01:43:58.143Z,9.43
2019-02-25T01:49:25.818Z,9.80
2019-02-25T01:57:39.933Z,8.83
2019-02-25T02:03:08.751Z,10.33
2019-02-25T02:09:32.571Z,10.93
2019-02-25T02:13:27.117Z,11.20
2019-02-25T02:19:11.826Z,11.50
2019-02-25T02:21:51.956Z,11.43
2019-02-25T02:24:28.574Z,11.40
2019-02-25T02:32:56.408Z,10.87
2019-02-25T02:35:47.349Z,10.83
2019-02-25T03:12:19.561Z,9.90
2019-02-25T03:27:57.630Z,11.83
2019-02-25T03:47:08.250Z,12.13
2019-02-25T03:49:38.796Z,10.43
2019-02-25T03:52:15.686Z,10.43
2019-02-25T03:54:48.810Z,10.20
2019-02-25T03:57:18.758Z,10.83
2019-02-25T03:59:49.228Z,10.90
2019-02-25T04:02:20.128Z,11.63
2019-02-25T04:04:52.301Z,10.73
2019-02-25T04:07:22.757Z,11.50
2019-02-25T04:09:53.581Z,11.70
2019-02-25T04:12:25.200Z,11.10
2019-02-25T04:14:58.707Z,12.53
2019-02-25T04:17:32.197Z,11.20
2019-02-25T04:20:02.658Z,10.87
2019-02-25T04:22:37.208Z,12.30
2019-02-25T04:25:09.396Z,11.13
2019-02-25T04:27:41.390Z,11.27
2019-02-25T04:30:16.311Z,10.80
2019-02-25T04:32:47.014Z,11.13
2019-02-25T04:35:17.600Z,12.13
2019-02-25T04:37:48.124Z,11.07
2019-02-25T04:40:21.015Z,11.13
2019-02-25T04:42:53.629Z,12.17
2019-02-25T04:45:24.301Z,12.70
2019-02-25T04:47:54.850Z,13.43
2019-02-25T04:50:29.748Z,12.00
2019-02-25T04:53:00.177Z,11.93
2019-02-25T04:55:31.075Z,11.00
2019-02-25T04:58:01.609Z,12.60
2019-02-25T05:00:32.918Z,11.70
2019-02-25T05:03:05.152Z,11.83
2019-02-25T05:05:37.620Z,12.47
2019-02-25T05:08:09.298Z,12.37
2019-02-25T05:10:42.897Z,11.80
2019-02-25T05:13:14.985Z,13.67
2019-02-25T05:15:49.609Z,14.20
2019-02-25T05:18:22.176Z,14.57
2019-02-25T05:20:52.352Z,15.00
2019-02-25T05:23:23.118Z,14.33
2019-02-25T05:25:53.860Z,14.37
2019-02-25T05:28:28.746Z,12.73
2019-02-25T05:30:59.228Z,14.43
2019-02-25T05:33:31.320Z,12.60
2019-02-25T05:36:12.701Z,12.87
2019-02-25T05:38:38.914Z,13.80
2019-02-25T05:41:09.489Z,14.07
2019-02-25T05:43:41.390Z,11.97
2019-02-25T05:46:11.900Z,14.03
2019-02-25T05:48:45.699Z,13.57
2019-02-25T05:51:15.938Z,14.60
2019-02-25T05:53:49.628Z,13.53
2019-02-25T05:56:22.923Z,12.60
2019-02-25T05:58:59.204Z,13.37
2019-02-25T06:01:31.518Z,13.00
2019-02-25T06:04:02.880Z,12.57
2019-02-25T06:06:35.525Z,13.93
2019-02-25T06:09:08.501Z,13.33
2019-02-25T06:11:39.956Z,12.27
2019-02-25T06:14:10.607Z,13.73
2019-02-25T06:16:41.350Z,13.37
2019-02-25T06:19:12.232Z,13.23
2019-02-25T06:21:49.883Z,14.20
2019-02-25T06:24:20.411Z,12.33
2019-02-25T06:29:35.548Z,12.37
2019-02-25T06:32:06.531Z,13.47
2019-02-25T06:34:42.772Z,14.00
2019-02-25T06:37:18.892Z,13.03
2019-02-25T06:39:50.602Z,10.13
2019-02-25T06:42:21.356Z,12.40
2019-02-25T06:44:52.723Z,13.00
2019-02-25T06:47:26.744Z,13.07
2019-02-25T06:50:02.211Z,13.57
2019-02-25T06:52:35.181Z,13.37
2019-02-25T06:58:23.062Z,12.47
2019-02-25T07:00:55.292Z,11.27
2019-02-25T07:03:27.563Z,14.10
2019-02-25T07:06:02.552Z,14.13
2019-02-25T07:08:37.633Z,14.57
2019-02-25T07:11:12.714Z,14.30
2019-02-25T07:14:03.196Z,16.60
2019-02-25T07:16:48.148Z,15.13
2019-02-25T07:19:23.319Z,12.40
2019-02-25T07:21:57.531Z,15.80
2019-02-25T07:24:52.627Z,15.10
2019-02-25T07:27:38.226Z,16.93
2019-02-25T07:30:30.570Z,15.97
2019-02-25T07:33:05.856Z,15.13
2019-02-25T07:35:45.889Z,18.83
2019-02-25T07:38:23.409Z,17.67
2019-02-25T07:41:18.566Z,22.70
2019-02-25T07:44:11.174Z,21.57
2019-02-25T07:46:48.093Z,20.43
2019-02-25T07:49:40.934Z,19.10
2019-02-25T07:52:20.871Z,20.57
2019-02-25T07:54:55.972Z,19.10
2019-02-25T07:57:29.206Z,17.50
2019-02-25T08:00:07.246Z,17.33
2019-02-25T08:02:47.764Z,19.80
2019-02-25T08:05:39.879Z,16.43
2019-02-25T08:08:20.947Z,15.53
2019-02-25T08:11:06.501Z,17.63
2019-02-25T08:13:45.267Z,16.03
2019-02-25T08:16:29.425Z,16.67
2019-02-25T08:19:17.360Z,15.97
2019-02-25T08:21:54.814Z,12.27
2019-02-25T08:24:41.375Z,11.10
2019-02-25T08:27:21.102Z,13.20
2019-02-25T08:29:59.390Z,10.93
2019-02-25T08:32:33.855Z,10.60
2019-02-25T08:35:15.978Z,10.97
2019-02-25T08:37:51.880Z,11.10
2019-02-25T08:40:38.509Z,11.60
2019-02-25T08:43:17.795Z,10.00
2019-02-25T08:46:06.015Z,11.90
2019-02-25T08:48:55.997Z,8.93
2019-02-25T08:51:35.600Z,11.30
2019-02-25T08:54:07.325Z,8.20
2019-02-25T08:56:41.055Z,9.10
2019-02-25T08:59:15.943Z,14.00
2019-02-25T09:01:51.002Z,13.77
2019-02-25T09:04:25.035Z,13.30
2019-02-25T09:06:58.038Z,13.47
2019-02-25T09:09:31.147Z,13.47
2019-02-25T09:12:05.561Z,13.33
2019-02-25T09:14:38.947Z,12.57
2019-02-25T09:17:16.098Z,14.73
2019-02-25T09:19:45.806Z,13.63
2019-02-25T09:22:19.126Z,14.27
2019-02-25T09:24:49.808Z,12.97
2019-02-25T09:27:28.011Z,11.93
2019-02-25T09:30:01.511Z,14.10
2019-02-25T09:32:50.481Z,14.27
2019-02-25T09:35:22.550Z,16.37
2019-02-25T09:37:59.626Z,14.83
2019-02-25T09:40:31.995Z,12.10
2019-02-25T09:43:28.554Z,15.03
2019-02-25T09:45:58.067Z,13.77
2019-02-25T09:48:31.763Z,13.47
2019-02-25T09:51:03.079Z,15.40
2019-02-25T09:53:35.735Z,16.10
2019-02-25T09:56:06.681Z,13.17
2019-02-25T09:58:39.216Z,16.63
2019-02-25T10:01:11.463Z,15.60
2019-02-25T10:03:42.660Z,16.53
2019-02-25T10:06:19.136Z,15.10
2019-02-25T10:08:53.265Z,15.53
2019-02-25T10:11:43.463Z,12.97
2019-02-25T10:14:16.355Z,15.37
2019-02-25T10:16:46.857Z,15.93
2019-02-25T10:19:20.796Z,14.13
2019-02-25T10:21:51.548Z,12.30
2019-02-25T10:24:24.699Z,14.80
2019-02-25T10:26:59.963Z,16.30
2019-02-25T10:29:31.266Z,15.20
2019-02-25T10:32:06.572Z,17.90
2019-02-25T10:34:40.814Z,17.90
2019-02-25T10:37:13.190Z,14.60
2019-02-25T10:39:45.427Z,15.37
2019-02-25T10:45:38.924Z,16.60
2019-02-25T10:48:15.220Z,17.57
2019-02-25T10:50:55.979Z,13.70
2019-02-25T10:53:25.030Z,15.93
2019-02-25T10:56:40.964Z,14.83
2019-02-25T10:58:57.713Z,16.33
2019-02-25T11:01:31.201Z,10.77
2019-02-25T11:04:02.316Z,14.60
2019-02-25T11:06:36.031Z,12.60
2019-02-25T11:09:28.722Z,13.10
2019-02-25T11:12:00.117Z,16.03
2019-02-25T11:14:41.119Z,15.80
2019-02-25T11:17:31.439Z,16.67
2019-02-25T11:20:27.203Z,14.97
2019-02-25T11:22:48.606Z,17.07
2019-02-25T11:25:24.110Z,15.77
2019-02-25T11:27:55.855Z,18.23
2019-02-25T11:30:26.980Z,17.03
2019-02-25T11:33:02.009Z,13.40
2019-02-25T11:35:39.270Z,14.73
2019-02-25T11:38:18.409Z,14.83
2019-02-25T11:41:14.158Z,14.40
2019-02-25T11:43:48.699Z,16.70
2019-02-25T11:46:22.868Z,12.17
2019-02-25T11:48:56.059Z,16.97
2019-02-25T11:51:27.409Z,18.33
2019-02-25T11:54:00.200Z,16.83
2019-02-25T11:56:33.589Z,18.33
2019-02-25T11:59:04.965Z,17.70
2019-02-25T12:01:35.802Z,18.50
2019-02-25T12:04:11.404Z,17.90
2019-02-25T12:06:44.450Z,20.23
2019-02-25T12:09:15.676Z,23.07
2019-02-25T12:18:22.461Z,18.43
2019-02-25T12:20:58.148Z,17.03
2019-02-25T12:23:29.224Z,16.57
2019-02-25T12:29:16.695Z,16.93
2019-02-25T12:31:52.604Z,17.37
2019-02-25T12:34:26.415Z,18.90
2019-02-25T12:37:00.583Z,18.47
2019-02-25T12:40:05.028Z,18.10
2019-02-25T12:42:36.168Z,18.17
2019-02-25T12:45:12.403Z,18.07
2019-02-25T12:47:52.831Z,18.33
2019-02-25T12:50:33.209Z,18.57
2019-02-25T12:53:06.325Z,19.40
2019-02-25T12:55:44.012Z,16.57
2019-02-25T12:58:23.064Z,19.67
2019-02-25T13:01:09.359Z,17.80
2019-02-25T13:03:42.825Z,17.93
2019-02-25T13:09:25.055Z,18.17
2019-02-25T13:11:58.555Z,18.53
2019-02-25T13:14:30.732Z,18.20
2019-02-25T13:17:14.174Z,18.40
2019-02-25T13:20:04.613Z,18.83
2019-02-25T13:31:59.950Z,20.37
2019-02-25T13:35:03.272Z,21.07
2019-02-25T13:37:37.573Z,19.13
2019-02-25T13:40:17.398Z,22.40
2019-02-25T13:43:10.685Z,21.40
2019-02-25T13:45:46.381Z,21.47
2019-02-25T13:48:18.515Z,23.63
2019-02-25T13:50:55.568Z,21.40
2019-02-25T13:53:29.543Z,21.00
2019-02-25T13:56:13.028Z,21.80
2019-02-25T13:58:45.139Z,20.43
2019-02-25T14:01:15.592Z,20.87
2019-02-25T14:03:52.572Z,22.00
2019-02-25T14:06:24.036Z,22.20
2019-02-25T14:12:31.967Z,22.10
2019-02-25T14:15:05.144Z,22.03
2019-02-25T14:17:40.205Z,22.57
2019-02-25T14:20:25.428Z,21.33
2019-02-25T14:23:00.242Z,22.37
2019-02-25T14:25:42.909Z,21.63
2019-02-25T14:28:15.984Z,23.90
2019-02-25T14:30:57.533Z,23.90
2019-02-25T14:33:28.510Z,23.50
2019-02-25T14:36:04.883Z,25.93
2019-02-25T14:38:51.348Z,24.57
2019-02-25T14:41:27.836Z,25.37
2019-02-25T14:44:08.331Z,24.73
2019-02-25T14:46:39.473Z,22.57
2019-02-25T14:49:11.894Z,22.87
2019-02-25T14:51:52.745Z,23.10
2019-02-25T14:54:37.955Z,25.80
2019-02-25T14:57:09.970Z,26.67
2019-02-25T14:59:46.259Z,25.67
2019-02-25T15:02:17.767Z,24.63
2019-02-25T15:04:50.129Z,26.57
2019-02-25T15:07:20.621Z,30.43
2019-02-25T15:09:53.182Z,31.80
2019-02-25T15:12:29.494Z,32.87
2019-02-25T15:15:02.606Z,28.43
2019-02-25T15:17:33.227Z,28.70
2019-02-25T15:20:07.506Z,33.60
2019-02-25T15:22:38.669Z,34.20
2019-02-25T15:25:13.717Z,35.17
2019-02-25T15:27:44.838Z,33.33
2019-02-25T15:30:25.084Z,32.27
2019-02-25T15:32:59.900Z,31.40
2019-02-25T15:35:37.098Z,34.07
2019-02-25T15:38:18.673Z,33.90
2019-02-25T15:40:50.034Z,32.43
2019-02-25T15:43:25.455Z,32.47
2019-02-25T15:45:55.997Z,31.20
2019-02-25T15:48:30.954Z,32.90
2019-02-25T15:51:18.300Z,35.47
2019-02-25T15:53:51.926Z,35.57
2019-02-25T15:56:26.702Z,33.00
2019-02-25T15:58:58.114Z,34.47
2019-02-25T16:01:52.632Z,32.27
2019-02-25T16:04:43.736Z,29.17
2019-02-25T16:13:53.251Z,35.97
2019-02-25T16:16:26.685Z,38.10
2019-02-25T16:19:05.633Z,38.77
2019-02-25T16:21:40.994Z,44.77
2019-02-25T16:24:16.371Z,49.13
2019-02-25T16:26:48.689Z,49.87
2019-02-25T16:29:23.816Z,49.07
2019-02-25T16:31:58.179Z,49.07
2019-02-25T16:34:32.026Z,47.77
2019-02-25T16:37:04.743Z,48.13
2019-02-25T16:39:38.345Z,52.10
2019-02-25T16:42:11.334Z,48.13
2019-02-25T16:44:47.498Z,48.97
2019-02-25T16:47:31.906Z,41.57
2019-02-25T16:49:59.037Z,42.27
2019-02-25T16:52:32.047Z,40.47
2019-02-25T16:55:07.644Z,40.43
2019-02-25T16:57:43.302Z,41.43
2019-02-25T17:00:25.176Z,41.30
2019-02-25T17:02:54.982Z,44.17
2019-02-25T17:05:27.332Z,46.87
2019-02-25T17:07:58.429Z,48.13
2019-02-25T17:10:33.830Z,48.07
2019-02-25T17:13:05.861Z,47.30
2019-02-25T17:15:46.008Z,48.13
2019-02-25T17:18:25.320Z,46.70
2019-02-25T17:21:15.989Z,44.63
2019-02-25T17:23:51.565Z,43.60
2019-02-25T17:26:33.608Z,44.27
2019-02-25T17:29:07.571Z,43.93
2019-02-25T17:31:47.194Z,44.30
2019-02-25T17:34:22.475Z,42.90
2019-02-25T17:36:54.607Z,43.00
2019-02-25T17:39:54.080Z,46.83
2019-02-25T17:42:33.546Z,44.07
2019-02-25T17:48:13.688Z,44.60
2019-02-25T17:50:48.826Z,47.97
2019-02-25T17:53:24.024Z,51.97
2019-02-25T17:56:00.456Z,48.33
2019-02-25T17:58:38.256Z,41.80
2019-02-25T18:01:12.997Z,36.30
2019-02-25T18:03:52.638Z,36.67
2019-02-25T18:06:29.587Z,35.13
2019-02-25T18:09:02.157Z,36.60
2019-02-25T18:11:34.757Z,40.00
2019-02-25T18:14:09.178Z,42.77
2019-02-25T18:16:48.895Z,48.47
2019-02-25T18:19:20.842Z,50.40
2019-02-25T18:21:51.638Z,50.03
2019-02-25T18:24:26.782Z,49.23
2019-02-25T18:27:01.230Z,45.60
2019-02-25T18:29:37.510Z,47.67
2019-02-25T18:32:12.900Z,48.80
2019-02-25T18:34:50.438Z,46.53
2019-02-25T18:37:23.589Z,49.67
2019-02-25T18:39:57.174Z,50.30
2019-02-25T18:42:31.692Z,49.63
2019-02-25T18:45:02.425Z,50.87
2019-02-25T18:47:36.008Z,52.57
2019-02-25T18:50:15.173Z,51.23
2019-02-25T18:52:44.132Z,54.80
2019-02-25T18:55:19.302Z,54.50
2019-02-25T18:57:57.220Z,55.37
2019-02-25T19:00:36.517Z,55.77
2019-02-25T19:03:10.839Z,54.70
2019-02-25T19:05:45.136Z,52.23
2019-02-25T19:08:20.324Z,50.60
2019-02-25T19:11:00.970Z,50.53
2019-02-25T19:13:34.403Z,48.70
2019-02-25T19:16:17.624Z,48.30
2019-02-25T19:19:06.173Z,47.27
2019-02-25T19:24:46.659Z,43.83
2019-02-25T19:27:19.811Z,45.23
2019-02-25T19:29:51.554Z,41.40
2019-02-25T19:32:28.681Z,42.23
2019-02-25T19:35:01.267Z,42.43
2019-02-25T19:37:37.721Z,42.10
2019-02-25T19:40:14.252Z,43.27
2019-02-25T19:42:52.207Z,43.00
2019-02-25T19:45:29.653Z,40.70
2019-02-25T19:48:05.324Z,42.97
2019-02-25T19:50:49.808Z,43.70
2019-02-25T19:53:15.199Z,42.17
2019-02-25T19:55:49.371Z,43.37
2019-02-25T19:58:30.886Z,43.27
2019-02-25T20:01:06.070Z,43.33
2019-02-25T20:03:51.834Z,44.27
2019-02-25T20:06:47.153Z,41.70
2019-02-25T20:09:24.701Z,44.17
2019-02-25T20:12:03.234Z,41.47
2019-02-25T20:15:13.657Z,42.13
2019-02-25T20:17:53.427Z,41.60
2019-02-25T20:20:25.926Z,36.80
2019-02-25T20:23:06.164Z,41.30
2019-02-25T20:25:42.374Z,42.00
2019-02-25T20:28:12.044Z,41.70
2019-02-25T20:30:44.653Z,42.80
2019-02-25T20:33:16.364Z,44.63
2019-02-25T20:35:51.254Z,45.50
2019-02-25T20:38:24.563Z,45.20
2019-02-25T20:41:00.567Z,43.87
2019-02-25T20:43:33.917Z,49.47
2019-02-25T20:46:06.026Z,44.70
2019-02-25T20:48:44.508Z,46.20
2019-02-25T20:51:13.670Z,46.07
2019-02-25T20:54:02.610Z,44.30
2019-02-25T20:56:36.651Z,36.63
2019-02-25T20:59:10.015Z,46.93
2019-02-25T21:01:48.972Z,45.53
2019-02-25T21:04:24.883Z,43.43
2019-02-25T21:06:58.051Z,41.30
2019-02-25T21:09:33.724Z,38.70
2019-02-25T21:12:08.260Z,41.97
2019-02-25T21:14:45.012Z,42.33
2019-02-25T21:17:18.472Z,43.73
2019-02-25T21:19:49.149Z,43.70
2019-02-25T21:22:23.375Z,44.67
2019-02-25T21:25:03.094Z,40.97
2019-02-25T21:27:37.488Z,41.23
2019-02-25T21:30:16.909Z,43.13
2019-02-25T21:32:51.953Z,42.67
2019-02-25T21:38:08.388Z,42.03
2019-02-25T21:40:46.172Z,38.80
2019-02-25T21:43:18.684Z,38.47
2019-02-25T21:48:36.966Z,35.93
2019-02-25T21:51:10.083Z,34.93
2019-02-25T21:53:41.517Z,34.93
2019-02-25T21:56:11.984Z,36.83
2019-02-25T21:58:44.563Z,36.50
2019-02-25T22:01:14.543Z,32.90
2019-02-25T22:03:48.718Z,37.20
2019-02-25T22:06:22.618Z,33.77
2019-02-25T22:08:54.172Z,35.67
2019-02-25T22:11:25.389Z,38.47
2019-02-25T22:13:56.943Z,36.13
2019-02-25T22:16:30.440Z,38.23
2019-02-25T22:19:01.934Z,38.57
2019-02-25T22:21:34.496Z,32.47
2019-02-25T22:24:07.401Z,32.47
2019-02-25T22:26:37.687Z,37.37
2019-02-25T22:29:08.150Z,36.50
2019-02-25T22:31:40.180Z,34.90
2019-02-25T22:34:12.962Z,37.30
2019-02-25T22:36:45.811Z,38.27
2019-02-25T22:39:14.964Z,37.77
2019-02-25T22:41:47.025Z,38.40
2019-02-25T22:44:17.704Z,37.03
2019-02-25T22:46:48.219Z,38.27
2019-02-25T22:49:19.601Z,39.53
2019-02-25T22:51:52.024Z,39.57
2019-02-25T22:54:25.286Z,39.77
2019-02-25T22:56:58.652Z,40.20
2019-02-25T22:59:29.168Z,38.60
2019-02-25T23:01:59.792Z,41.50
2019-02-25T23:04:31.055Z,41.20
2019-02-25T23:07:04.581Z,40.10
2019-02-25T23:09:35.028Z,41.73
2019-02-25T23:12:05.504Z,45.90
2019-02-25T23:14:36.636Z,47.93
2019-02-25T23:17:15.723Z,50.97
2019-02-25T23:19:45.983Z,50.87
2019-02-25T23:25:20.084Z,42.60
2019-02-25T23:27:51.728Z,41.47
2019-02-25T23:30:23.999Z,45.57
2019-02-25T23:32:56.483Z,41.63
2019-02-25T23:35:26.925Z,44.63
2019-02-25T23:37:58.601Z,38.67
2019-02-25T23:40:33.278Z,40.10
2019-02-25T23:43:27.144Z,40.03
2019-02-25T23:45:58.412Z,40.03
2019-02-25T23:48:32.904Z,44.50
2019-02-25T23:51:01.921Z,40.90
2019-02-25T23:53:32.923Z,38.50
2019-02-25T23:56:04.498Z,37.77
2019-02-25T23:58:38.375Z,37.40
